createdAt,value
2018-05-31T00:02:22.667Z,90.80
2018-05-31T00:04:50.215Z,90.80
2018-05-31T00:07:17.747Z,90.70
2018-05-31T00:09:45.315Z,90.80
2018-05-31T00:12:12.843Z,90.90
2018-05-31T00:14:40.401Z,90.80
2018-05-31T00:17:08.685Z,90.80
2018-05-31T00:19:36.193Z,90.80
2018-05-31T00:22:03.831Z,90.80
2018-05-31T00:24:31.360Z,90.90
2018-05-31T00:26:58.919Z,91.00
2018-05-31T00:29:26.431Z,91.10
2018-05-31T00:31:53.997Z,91.20
2018-05-31T00:34:22.284Z,91.30
2018-05-31T00:36:49.850Z,91.30
2018-05-31T00:39:17.379Z,91.20
2018-05-31T00:41:45.711Z,91.40
2018-05-31T00:44:14.407Z,91.30
2018-05-31T00:46:41.957Z,91.40
2018-05-31T00:49:09.497Z,91.40
2018-05-31T00:51:37.065Z,91.30
2018-05-31T00:54:04.599Z,91.40
2018-05-31T00:56:32.158Z,91.60
2018-05-31T00:58:59.704Z,91.70
2018-05-31T01:01:28.027Z,91.60
2018-05-31T01:03:55.585Z,91.60
2018-05-31T01:06:23.107Z,91.70
2018-05-31T01:08:51.420Z,91.80
2018-05-31T01:11:18.947Z,91.80
2018-05-31T01:13:46.489Z,91.90
2018-05-31T01:16:14.023Z,91.90
2018-05-31T01:18:41.595Z,91.70
2018-05-31T01:21:09.111Z,91.70
2018-05-31T01:23:36.658Z,91.90
2018-05-31T01:26:04.191Z,91.90
2018-05-31T01:28:32.510Z,91.90
2018-05-31T01:31:00.024Z,91.90
2018-05-31T01:33:27.573Z,91.80
2018-05-31T01:35:55.551Z,91.90
2018-05-31T01:38:33.009Z,92.10
2018-05-31T01:41:00.537Z,92.00
2018-05-31T01:43:28.121Z,92.00
2018-05-31T01:45:55.643Z,92.00
2018-05-31T01:48:23.180Z,92.10
2018-05-31T01:50:50.745Z,92.50
2018-05-31T01:53:18.343Z,92.20
2018-05-31T01:55:45.971Z,92.30
2018-05-31T01:58:13.569Z,92.40
2018-05-31T02:00:41.167Z,92.40
2018-05-31T02:03:12.027Z,92.40
2018-05-31T02:05:39.733Z,92.40
2018-05-31T02:08:07.561Z,92.40
2018-05-31T02:10:35.941Z,92.30
2018-05-31T02:13:04.339Z,92.30
2018-05-31T02:15:32.155Z,92.20
2018-05-31T02:17:59.911Z,92.30
2018-05-31T02:20:27.705Z,92.30
2018-05-31T02:22:55.311Z,92.20
2018-05-31T02:25:23.035Z,92.30
2018-05-31T02:27:50.703Z,92.30
2018-05-31T02:30:19.078Z,92.30
2018-05-31T02:32:47.480Z,92.30
2018-05-31T02:35:15.195Z,92.30
2018-05-31T02:37:42.768Z,92.30
2018-05-31T02:40:10.442Z,92.30
2018-05-31T02:42:38.117Z,92.30
2018-05-31T02:45:05.767Z,92.20
2018-05-31T02:47:34.225Z,92.40
2018-05-31T02:50:02.102Z,92.40
2018-05-31T02:52:30.487Z,92.30
2018-05-31T02:54:58.256Z,92.30
2018-05-31T02:57:26.680Z,92.40
2018-05-31T02:59:54.306Z,92.40
2018-05-31T03:02:21.923Z,92.50
2018-05-31T03:04:49.701Z,92.40
2018-05-31T03:07:17.488Z,92.40
2018-05-31T03:09:45.209Z,92.40
2018-05-31T03:12:12.847Z,92.50
2018-05-31T03:14:40.547Z,92.60
2018-05-31T03:17:08.346Z,92.70
2018-05-31T03:19:35.975Z,92.60
2018-05-31T03:22:03.563Z,92.70
2018-05-31T03:24:31.309Z,92.70
2018-05-31T03:26:59.335Z,92.70
2018-05-31T03:29:26.937Z,92.90
2018-05-31T03:31:54.654Z,92.90
2018-05-31T03:34:22.481Z,92.80
2018-05-31T03:36:51.053Z,92.90
2018-05-31T03:39:19.309Z,92.90
2018-05-31T03:41:47.059Z,92.90
2018-05-31T03:44:14.779Z,93.00
2018-05-31T03:46:43.527Z,93.20
2018-05-31T03:49:11.391Z,93.20
2018-05-31T03:51:39.907Z,93.40
2018-05-31T03:54:07.588Z,93.30
2018-05-31T03:56:35.409Z,93.50
2018-05-31T03:59:03.881Z,93.50
2018-05-31T04:01:32.149Z,93.40
2018-05-31T04:03:59.830Z,93.50
2018-05-31T04:06:28.324Z,93.50
2018-05-31T04:08:55.891Z,93.50
2018-05-31T04:11:23.621Z,93.50
2018-05-31T04:13:51.251Z,93.70
2018-05-31T04:16:18.936Z,93.70
2018-05-31T04:18:46.624Z,93.70
2018-05-31T04:21:14.361Z,93.70
2018-05-31T04:23:42.105Z,93.70
2018-05-31T04:26:09.841Z,93.70
2018-05-31T04:28:37.617Z,93.70
2018-05-31T04:31:05.335Z,93.50
2018-05-31T04:33:32.969Z,93.30
2018-05-31T04:36:00.601Z,93.10
2018-05-31T04:38:28.287Z,93.20
2018-05-31T04:40:55.909Z,93.10
2018-05-31T04:43:23.560Z,93.10
2018-05-31T04:45:51.305Z,93.00
2018-05-31T04:48:19.560Z,92.90
2018-05-31T04:50:47.223Z,92.90
2018-05-31T04:53:14.943Z,92.90
2018-05-31T04:55:42.565Z,93.10
2018-05-31T04:58:11.221Z,93.10
2018-05-31T05:00:39.006Z,93.20
2018-05-31T05:03:06.799Z,93.20
2018-05-31T05:05:34.586Z,93.00
2018-05-31T05:08:02.350Z,92.70
2018-05-31T05:10:30.739Z,92.70
2018-05-31T05:12:58.360Z,92.60
2018-05-31T05:15:26.040Z,92.60
2018-05-31T05:17:54.634Z,92.50
2018-05-31T05:20:23.219Z,92.50
2018-05-31T05:22:51.012Z,92.50
2018-05-31T05:25:18.847Z,92.40
2018-05-31T05:27:46.633Z,92.50
2018-05-31T05:30:14.426Z,92.50
2018-05-31T05:32:42.188Z,92.50
2018-05-31T05:35:09.958Z,91.90
2018-05-31T05:37:37.735Z,91.60
2018-05-31T05:40:07.215Z,91.10
2018-05-31T05:42:34.854Z,91.00
2018-05-31T05:45:03.250Z,91.00
2018-05-31T05:47:33.387Z,91.00
2018-05-31T05:50:01.684Z,91.00
2018-05-31T05:52:29.494Z,91.10
2018-05-31T05:54:57.311Z,91.10
2018-05-31T05:57:24.969Z,91.00
2018-05-31T05:59:52.678Z,91.30
2018-05-31T06:02:20.327Z,91.50
2018-05-31T06:04:48.004Z,91.30
2018-05-31T06:07:15.935Z,91.30
2018-05-31T06:09:43.561Z,91.10
2018-05-31T06:12:11.250Z,91.10
2018-05-31T06:14:38.877Z,91.10
2018-05-31T06:17:06.685Z,91.40
2018-05-31T06:19:35.157Z,91.50
2018-05-31T06:22:03.001Z,91.40
2018-05-31T06:24:30.734Z,91.60
2018-05-31T06:26:58.357Z,90.80
2018-05-31T06:29:28.041Z,91.00
2018-05-31T06:31:55.783Z,91.00
2018-05-31T06:34:23.606Z,91.00
2018-05-31T06:36:51.962Z,90.90
2018-05-31T06:39:19.725Z,90.90
2018-05-31T06:41:47.342Z,90.80
2018-05-31T06:44:15.069Z,91.40
2018-05-31T06:46:42.735Z,90.90
2018-05-31T06:49:10.402Z,90.40
2018-05-31T06:51:38.306Z,89.80
2018-05-31T06:54:06.103Z,89.00
2018-05-31T06:56:33.987Z,88.70
2018-05-31T06:59:01.661Z,88.90
2018-05-31T07:01:29.535Z,86.50
2018-05-31T07:03:57.335Z,87.50
2018-05-31T07:06:25.902Z,84.40
2018-05-31T07:08:53.723Z,84.30
2018-05-31T07:11:21.544Z,83.20
2018-05-31T07:13:50.115Z,80.20
2018-05-31T07:16:17.984Z,80.20
2018-05-31T07:18:45.950Z,76.50
2018-05-31T07:21:13.695Z,77.90
2018-05-31T07:23:41.519Z,75.50
2018-05-31T07:26:09.353Z,73.80
2018-05-31T07:28:37.168Z,73.80
2018-05-31T07:31:04.968Z,74.50
2018-05-31T07:33:34.727Z,70.60
2018-05-31T07:36:02.470Z,68.90
2018-05-31T07:38:30.216Z,69.00
2018-05-31T07:40:57.989Z,69.40
2018-05-31T07:43:26.567Z,64.40
2018-05-31T07:45:54.373Z,64.30
2018-05-31T07:48:22.085Z,65.70
2018-05-31T07:50:49.689Z,65.00
2018-05-31T07:53:17.346Z,61.70
2018-05-31T07:55:45.046Z,61.10
2018-05-31T07:58:13.234Z,62.50
2018-05-31T08:00:41.031Z,59.50
2018-05-31T08:03:08.801Z,60.20
2018-05-31T08:05:37.236Z,59.60
2018-05-31T08:08:04.949Z,59.50
2018-05-31T08:10:32.528Z,58.30
2018-05-31T08:13:00.293Z,57.10
2018-05-31T08:15:28.028Z,57.20
2018-05-31T08:17:55.804Z,57.20
2018-05-31T08:20:23.532Z,55.80
2018-05-31T08:22:51.179Z,56.50
2018-05-31T08:25:18.973Z,54.00
2018-05-31T08:27:46.741Z,52.60
2018-05-31T08:30:14.441Z,54.50
2018-05-31T08:32:42.095Z,55.20
2018-05-31T08:35:10.489Z,53.30
2018-05-31T08:37:38.025Z,53.30
2018-05-31T08:40:05.707Z,53.40
2018-05-31T08:42:33.326Z,54.10
2018-05-31T08:45:00.987Z,53.00
2018-05-31T08:47:28.539Z,52.50
2018-05-31T08:49:56.183Z,53.20
2018-05-31T08:52:23.912Z,53.60
2018-05-31T08:54:51.557Z,51.30
2018-05-31T08:57:20.900Z,51.80
2018-05-31T08:59:49.266Z,51.20
2018-05-31T09:02:16.813Z,51.20
2018-05-31T09:04:44.501Z,49.10
2018-05-31T09:07:12.114Z,49.20
2018-05-31T09:09:40.314Z,49.40
2018-05-31T09:12:07.957Z,50.10
2018-05-31T09:14:35.589Z,48.70
2018-05-31T09:17:04.409Z,49.70
2018-05-31T09:19:32.857Z,50.20
2018-05-31T09:22:00.673Z,50.30
2018-05-31T09:24:28.219Z,49.30
2018-05-31T09:26:56.624Z,48.80
2018-05-31T09:29:24.231Z,48.80
2018-05-31T09:31:51.909Z,49.20
2018-05-31T09:34:19.723Z,48.60
2018-05-31T09:36:47.454Z,47.80
2018-05-31T09:39:15.124Z,50.10
2018-05-31T09:41:42.913Z,47.30
2018-05-31T09:44:10.748Z,48.10
2018-05-31T09:46:38.765Z,49.20
2018-05-31T09:49:06.353Z,47.70
2018-05-31T09:51:34.033Z,45.60
2018-05-31T09:54:01.730Z,47.80
2018-05-31T09:56:29.347Z,48.00
2018-05-31T09:58:56.890Z,47.20
2018-05-31T10:01:24.411Z,44.60
2018-05-31T10:03:52.721Z,43.50
2018-05-31T10:06:20.227Z,43.40
2018-05-31T10:08:47.778Z,42.40
2018-05-31T10:11:16.056Z,45.30
2018-05-31T10:13:44.373Z,42.10
2018-05-31T10:16:11.876Z,42.00
2018-05-31T10:18:39.434Z,43.30
2018-05-31T10:21:06.940Z,41.60
2018-05-31T10:23:34.472Z,41.30
2018-05-31T10:26:01.989Z,42.70
2018-05-31T10:28:29.541Z,42.00
2018-05-31T10:30:57.072Z,41.60
2018-05-31T10:33:24.646Z,40.50
2018-05-31T10:35:52.553Z,41.30
2018-05-31T10:38:20.080Z,41.90
2018-05-31T10:40:47.621Z,42.70
2018-05-31T10:43:15.132Z,42.00
2018-05-31T10:45:42.694Z,42.30
2018-05-31T10:48:10.206Z,40.40
2018-05-31T10:50:37.757Z,42.30
2018-05-31T10:53:05.278Z,43.60
2018-05-31T10:55:32.831Z,40.70
2018-05-31T10:58:00.505Z,40.40
2018-05-31T11:00:28.277Z,40.80
2018-05-31T11:02:56.654Z,43.10
2018-05-31T11:05:25.081Z,41.90
2018-05-31T11:07:53.515Z,42.00
2018-05-31T11:10:22.369Z,41.20
2018-05-31T11:12:50.061Z,41.20
2018-05-31T11:15:17.767Z,42.90
2018-05-31T11:17:45.483Z,42.70
2018-05-31T11:20:13.249Z,43.70
2018-05-31T11:22:41.009Z,44.20
2018-05-31T11:25:08.717Z,43.00
2018-05-31T11:27:36.489Z,43.40
2018-05-31T11:30:04.218Z,42.40
2018-05-31T11:32:32.784Z,43.40
2018-05-31T11:35:00.425Z,43.40
2018-05-31T11:37:28.131Z,42.50
2018-05-31T11:39:55.793Z,41.30
2018-05-31T11:42:23.468Z,42.00
2018-05-31T11:44:52.401Z,42.70
2018-05-31T11:47:20.068Z,42.50
2018-05-31T11:49:47.729Z,43.70
2018-05-31T11:52:15.486Z,43.90
2018-05-31T11:54:43.112Z,41.40
2018-05-31T11:57:10.874Z,42.10
2018-05-31T11:59:38.523Z,44.50
2018-05-31T12:02:06.909Z,42.80
2018-05-31T12:04:34.639Z,42.80
2018-05-31T12:07:02.312Z,43.10
2018-05-31T12:09:29.975Z,42.80
2018-05-31T12:11:57.538Z,42.60
2018-05-31T12:14:25.149Z,43.10
2018-05-31T12:16:52.815Z,42.40
2018-05-31T12:19:20.426Z,44.00
2018-05-31T12:21:47.976Z,43.60
2018-05-31T12:24:15.582Z,43.90
2018-05-31T12:26:43.147Z,45.50
2018-05-31T12:29:10.698Z,44.60
2018-05-31T12:31:38.267Z,45.00
2018-05-31T12:34:05.914Z,44.50
2018-05-31T12:36:33.491Z,42.40
2018-05-31T12:39:01.151Z,44.50
2018-05-31T12:41:28.730Z,42.50
2018-05-31T12:43:56.258Z,42.50
2018-05-31T12:46:23.905Z,42.40
2018-05-31T12:48:51.533Z,41.80
2018-05-31T12:51:19.120Z,42.20
2018-05-31T12:53:47.543Z,43.00
2018-05-31T12:56:15.117Z,43.00
2018-05-31T12:58:42.626Z,42.80
2018-05-31T13:01:10.210Z,43.10
2018-05-31T13:03:37.748Z,43.80
2018-05-31T13:06:05.397Z,45.30
2018-05-31T13:08:32.910Z,43.50
2018-05-31T13:11:00.508Z,43.50
2018-05-31T13:13:28.061Z,43.70
2018-05-31T13:15:55.669Z,44.50
2018-05-31T13:18:23.250Z,42.70
2018-05-31T13:20:50.841Z,43.40
2018-05-31T13:23:18.398Z,43.80
2018-05-31T13:25:45.985Z,44.10
2018-05-31T13:28:14.370Z,43.30
2018-05-31T13:30:41.958Z,43.20
2018-05-31T13:33:09.606Z,43.00
2018-05-31T13:35:37.202Z,44.20
2018-05-31T13:38:04.835Z,44.80
2018-05-31T13:40:32.452Z,44.40
2018-05-31T13:43:00.106Z,43.60
2018-05-31T13:45:27.692Z,44.40
2018-05-31T13:47:56.070Z,42.70
2018-05-31T13:50:23.622Z,42.60
2018-05-31T13:52:51.208Z,43.80
2018-05-31T13:55:18.788Z,44.40
2018-05-31T13:57:46.380Z,43.40
2018-05-31T14:00:13.902Z,43.10
2018-05-31T14:02:41.526Z,44.30
2018-05-31T14:05:10.313Z,43.70
2018-05-31T14:07:37.874Z,45.30
2018-05-31T14:10:06.208Z,46.10
2018-05-31T14:12:33.747Z,46.00
2018-05-31T14:15:01.385Z,44.30
2018-05-31T14:17:28.928Z,45.80
2018-05-31T14:19:56.505Z,44.10
2018-05-31T14:22:24.090Z,45.40
2018-05-31T14:24:51.719Z,47.70
2018-05-31T14:27:20.029Z,44.80
2018-05-31T14:29:47.686Z,44.80
2018-05-31T14:32:15.248Z,44.70
2018-05-31T14:34:42.916Z,46.60
2018-05-31T14:37:10.444Z,46.20
2018-05-31T14:39:38.036Z,45.40
2018-05-31T14:42:05.636Z,46.60
2018-05-31T14:44:33.194Z,45.90
2018-05-31T14:47:00.790Z,46.90
2018-05-31T14:49:29.756Z,46.70
2018-05-31T14:51:58.136Z,47.90
2018-05-31T14:54:25.718Z,47.30
2018-05-31T14:56:54.093Z,47.20
2018-05-31T14:59:22.116Z,47.20
2018-05-31T15:01:49.748Z,46.70
2018-05-31T15:04:17.332Z,48.70
2018-05-31T15:06:44.969Z,47.50
2018-05-31T15:09:12.908Z,47.30
2018-05-31T15:11:41.298Z,48.30
2018-05-31T15:14:08.860Z,48.20
2018-05-31T15:16:37.235Z,49.70
2018-05-31T15:19:05.598Z,48.80
2018-05-31T15:21:33.234Z,48.70
2018-05-31T15:24:00.817Z,49.60
2018-05-31T15:26:28.393Z,50.60
2018-05-31T15:28:56.773Z,51.40
2018-05-31T15:31:24.285Z,51.40
2018-05-31T15:33:51.954Z,50.40
2018-05-31T15:36:19.474Z,51.70
2018-05-31T15:38:47.112Z,51.60
2018-05-31T15:41:15.431Z,52.30
2018-05-31T15:43:43.021Z,52.30
2018-05-31T15:46:10.573Z,52.00
2018-05-31T15:48:38.162Z,51.10
2018-05-31T15:51:05.710Z,52.50
2018-05-31T15:53:33.319Z,52.80
2018-05-31T15:56:00.880Z,52.00
2018-05-31T15:58:28.522Z,53.10
2018-05-31T16:00:57.969Z,53.30
2018-05-31T16:03:25.950Z,53.40
2018-05-31T16:05:53.523Z,53.20
2018-05-31T16:08:21.149Z,53.10
2018-05-31T16:10:48.718Z,54.20
2018-05-31T16:13:16.295Z,54.20
2018-05-31T16:15:44.954Z,55.20
2018-05-31T16:18:12.506Z,53.60
2018-05-31T16:20:40.112Z,53.90
2018-05-31T16:23:07.645Z,54.70
2018-05-31T16:25:35.227Z,54.70
2018-05-31T16:28:02.844Z,54.90
2018-05-31T16:30:30.860Z,54.80
2018-05-31T16:32:59.222Z,56.10
2018-05-31T16:35:26.827Z,55.40
2018-05-31T16:37:55.181Z,56.20
2018-05-31T16:40:22.772Z,56.10
2018-05-31T16:42:51.115Z,55.60
2018-05-31T16:45:18.713Z,55.60
2018-05-31T16:47:46.293Z,56.00
2018-05-31T16:50:13.933Z,57.00
2018-05-31T16:52:41.456Z,57.30
2018-05-31T16:55:09.456Z,57.20
2018-05-31T16:57:37.034Z,57.20
2018-05-31T17:00:05.804Z,57.20
2018-05-31T17:02:33.372Z,57.10
2018-05-31T17:05:01.676Z,57.10
2018-05-31T17:07:29.244Z,57.00
2018-05-31T17:09:56.822Z,56.70
2018-05-31T17:12:24.435Z,56.90
2018-05-31T17:14:51.981Z,56.90
2018-05-31T17:17:20.305Z,57.80
2018-05-31T17:19:47.904Z,57.70
2018-05-31T17:22:15.490Z,58.10
2018-05-31T17:24:43.780Z,58.50
2018-05-31T17:27:11.354Z,58.50
2018-05-31T17:29:38.924Z,58.50
2018-05-31T17:32:06.482Z,58.60
2018-05-31T17:34:34.087Z,59.30
2018-05-31T17:37:01.644Z,59.20
2018-05-31T17:39:30.014Z,58.80
2018-05-31T17:41:58.627Z,59.00
2018-05-31T17:44:26.968Z,59.00
2018-05-31T17:46:54.511Z,58.90
2018-05-31T17:49:22.165Z,59.30
2018-05-31T17:51:49.648Z,59.40
2018-05-31T17:54:17.968Z,59.80
2018-05-31T17:56:45.575Z,59.70
2018-05-31T17:59:13.092Z,60.30
2018-05-31T18:01:40.612Z,60.50
2018-05-31T18:04:08.207Z,60.60
2018-05-31T18:06:36.562Z,60.40
2018-05-31T18:09:04.212Z,60.40
2018-05-31T18:11:31.799Z,60.60
2018-05-31T18:14:00.143Z,61.00
2018-05-31T18:16:27.730Z,60.90
2018-05-31T18:18:56.092Z,61.30
2018-05-31T18:21:23.690Z,61.20
2018-05-31T18:23:51.300Z,61.50
2018-05-31T18:26:18.928Z,61.90
2018-05-31T18:28:46.503Z,61.90
2018-05-31T18:31:14.072Z,61.80
2018-05-31T18:33:41.624Z,62.20
2018-05-31T18:36:09.180Z,62.40
2018-05-31T18:38:36.706Z,62.70
2018-05-31T18:41:04.267Z,62.80
2018-05-31T18:43:32.582Z,63.80
2018-05-31T18:46:00.215Z,63.60
2018-05-31T18:48:27.794Z,63.80
2018-05-31T18:50:55.350Z,64.60
2018-05-31T18:53:22.884Z,65.10
2018-05-31T18:55:50.462Z,65.60
2018-05-31T18:58:18.041Z,65.90
2018-05-31T19:00:45.612Z,66.30
2018-05-31T19:03:13.192Z,67.10
2018-05-31T19:05:40.766Z,66.60
2018-05-31T19:08:08.284Z,66.90
2018-05-31T19:10:35.880Z,67.40
2018-05-31T19:13:08.974Z,68.20
2018-05-31T19:15:36.594Z,68.70
2018-05-31T19:18:04.930Z,68.40
2018-05-31T19:20:32.522Z,68.30
2018-05-31T19:23:00.109Z,69.40
2018-05-31T19:25:27.706Z,70.40
2018-05-31T19:27:55.298Z,70.60
2018-05-31T19:30:28.614Z,71.30
2018-05-31T19:32:56.200Z,71.90
2018-05-31T19:35:29.446Z,72.90
2018-05-31T19:37:57.031Z,72.50
2018-05-31T19:40:24.728Z,72.60
2018-05-31T19:42:58.140Z,71.90
2018-05-31T19:45:26.455Z,71.90
2018-05-31T19:47:54.009Z,71.80
2018-05-31T19:50:21.588Z,72.00
2018-05-31T19:52:54.860Z,72.10
2018-05-31T19:55:22.400Z,72.30
2018-05-31T19:57:55.644Z,72.40
2018-05-31T20:00:28.920Z,72.50
2018-05-31T20:03:02.056Z,72.80
2018-05-31T20:05:29.588Z,72.60
2018-05-31T20:07:57.192Z,72.60
2018-05-31T20:10:25.548Z,74.60
2018-05-31T20:12:53.094Z,74.50
2018-05-31T20:15:20.624Z,75.50
2018-05-31T20:17:48.220Z,75.70
2018-05-31T20:20:15.772Z,75.70
2018-05-31T20:22:43.340Z,76.80
2018-05-31T20:25:10.869Z,76.80
2018-05-31T20:27:38.480Z,77.60
2018-05-31T20:30:06.798Z,77.70
2018-05-31T20:32:34.384Z,77.60
2018-05-31T20:35:02.681Z,77.70
2018-05-31T20:37:30.194Z,77.60
2018-05-31T20:39:57.744Z,78.30
2018-05-31T20:42:25.264Z,78.50
2018-05-31T20:44:52.841Z,78.50
2018-05-31T20:47:20.386Z,78.80
2018-05-31T20:49:48.748Z,79.00
2018-05-31T20:52:16.299Z,78.90
2018-05-31T20:54:43.902Z,79.10
2018-05-31T20:57:12.180Z,80.50
2018-05-31T20:59:40.217Z,80.30
2018-05-31T21:02:07.738Z,80.40
2018-05-31T21:04:35.338Z,80.40
2018-05-31T21:07:02.890Z,80.70
2018-05-31T21:09:31.722Z,81.60
2018-05-31T21:11:59.288Z,81.70
2018-05-31T21:14:26.835Z,82.00
2018-05-31T21:16:55.188Z,82.60
2018-05-31T21:19:22.712Z,82.50
2018-05-31T21:21:50.290Z,82.50
2018-05-31T21:24:17.816Z,82.50
2018-05-31T21:26:45.406Z,83.30
2018-05-31T21:29:13.001Z,83.10
2018-05-31T21:31:40.554Z,83.40
2018-05-31T21:34:08.112Z,83.70
2018-05-31T21:36:35.718Z,84.10
2018-05-31T21:39:03.262Z,84.60
2018-05-31T21:41:30.828Z,84.80
2018-05-31T21:43:58.351Z,85.10
2018-05-31T21:46:25.910Z,85.70
2018-05-31T21:48:53.412Z,85.90
2018-05-31T21:51:20.972Z,86.50
2018-05-31T21:53:48.494Z,86.30
2018-05-31T21:56:16.103Z,86.70
2018-05-31T21:58:43.697Z,87.10
2018-05-31T22:01:11.213Z,86.70
2018-05-31T22:03:38.791Z,86.90
2018-05-31T22:06:06.455Z,86.70
2018-05-31T22:08:34.023Z,87.30
2018-05-31T22:11:01.562Z,87.40
2018-05-31T22:13:29.139Z,87.90
2018-05-31T22:15:56.668Z,88.30
2018-05-31T22:18:24.228Z,88.60
2018-05-31T22:20:51.748Z,88.70
2018-05-31T22:23:19.321Z,88.90
2018-05-31T22:25:46.869Z,88.70
2018-05-31T22:28:14.439Z,88.80
2018-05-31T22:30:41.986Z,88.90
2018-05-31T22:33:09.554Z,89.20
2018-05-31T22:35:37.101Z,89.70
2018-05-31T22:38:04.646Z,89.80
2018-05-31T22:40:32.208Z,89.40
2018-05-31T22:42:59.739Z,88.90
2018-05-31T22:45:27.290Z,89.20
2018-05-31T22:47:54.916Z,89.20
2018-05-31T22:50:22.486Z,89.30
2018-05-31T22:52:50.763Z,89.20
2018-05-31T22:55:18.372Z,89.20
2018-05-31T22:57:48.109Z,89.50
2018-05-31T23:00:15.742Z,89.60
2018-05-31T23:02:43.281Z,90.00
2018-05-31T23:05:13.497Z,90.20
2018-05-31T23:07:41.027Z,90.20
2018-05-31T23:10:09.423Z,90.30
2018-05-31T23:12:36.945Z,90.30
2018-05-31T23:15:04.471Z,90.50
2018-05-31T23:17:32.044Z,90.60
2018-05-31T23:19:59.595Z,90.90
2018-05-31T23:22:27.163Z,90.80
2018-05-31T23:24:54.681Z,90.70
2018-05-31T23:27:22.248Z,90.80
2018-05-31T23:29:49.790Z,90.70
2018-05-31T23:32:18.123Z,90.80
2018-05-31T23:34:45.690Z,90.80
2018-05-31T23:37:13.227Z,90.90
2018-05-31T23:39:40.791Z,90.60
2018-05-31T23:42:08.405Z,90.70
2018-05-31T23:44:35.918Z,90.70
2018-05-31T23:47:03.507Z,90.60
2018-05-31T23:49:31.082Z,90.80
2018-05-31T23:51:58.917Z,90.90
2018-05-31T23:54:26.452Z,91.00
2018-05-31T23:56:54.040Z,91.00
2018-05-31T23:59:21.612Z,91.10
